sensor_id;sensor_type;location;lat;lon;timestamp;P1;durP1;ratioP1;P2;durP2;ratioP2
19111;SDS011;9688;51.906;8.376;2022-12-29T00:00:25;3.33;;;1.30;;
19111;SDS011;9688;51.906;8.376;2022-12-29T00:03:11;1.50;;;1.40;;
19111;SDS011;9688;51.906;8.376;2022-12-29T00:05:57;1.40;;;1.30;;
19111;SDS011;9688;51.906;8.376;2022-12-29T00:08:45;1.33;;;1.33;;
19111;SDS011;9688;51.906;8.376;2022-12-29T00:11:31;3.07;;;1.33;;
19111;SDS011;9688;51.906;8.376;2022-12-29T00:14:16;1.50;;;1.40;;
19111;SDS011;9688;51.906;8.376;2022-12-29T00:17:21;1.63;;;1.50;;
19111;SDS011;9688;51.906;8.376;2022-12-29T00:20:07;1.30;;;1.30;;
19111;SDS011;9688;51.906;8.376;2022-12-29T00:23:11;1.67;;;1.33;;
19111;SDS011;9688;51.906;8.376;2022-12-29T00:26:14;1.30;;;1.30;;
19111;SDS011;9688;51.906;8.376;2022-12-29T00:29:19;1.40;;;1.30;;
19111;SDS011;9688;51.906;8.376;2022-12-29T00:32:23;1.27;;;1.27;;
19111;SDS011;9688;51.906;8.376;2022-12-29T00:35:28;1.70;;;1.60;;
19111;SDS011;9688;51.906;8.376;2022-12-29T00:38:16;2.03;;;1.53;;
19111;SDS011;9688;51.906;8.376;2022-12-29T00:41:21;1.97;;;1.50;;
19111;SDS011;9688;51.906;8.376;2022-12-29T00:44:24;1.33;;;1.33;;
19111;SDS011;9688;51.906;8.376;2022-12-29T00:47:10;1.37;;;1.27;;
19111;SDS011;9688;51.906;8.376;2022-12-29T00:49:57;1.40;;;1.30;;
19111;SDS011;9688;51.906;8.376;2022-12-29T00:52:42;1.37;;;1.33;;
19111;SDS011;9688;51.906;8.376;2022-12-29T00:55:27;2.43;;;1.53;;
19111;SDS011;9688;51.906;8.376;2022-12-29T00:58:13;1.23;;;1.23;;
19111;SDS011;9688;51.906;8.376;2022-12-29T01:01:01;1.43;;;1.33;;
19111;SDS011;9688;51.906;8.376;2022-12-29T01:03:47;1.50;;;1.40;;
19111;SDS011;9688;51.906;8.376;2022-12-29T01:06:35;1.10;;;1.10;;
19111;SDS011;9688;51.906;8.376;2022-12-29T01:09:21;1.20;;;1.20;;
19111;SDS011;9688;51.906;8.376;2022-12-29T01:12:25;1.20;;;1.20;;
19111;SDS011;9688;51.906;8.376;2022-12-29T01:15:18;1.33;;;1.23;;
19111;SDS011;9688;51.906;8.376;2022-12-29T01:18:05;2.00;;;1.13;;
19111;SDS011;9688;51.906;8.376;2022-12-29T01:20:50;0.93;;;0.93;;
19111;SDS011;9688;51.906;8.376;2022-12-29T01:23:35;1.13;;;1.03;;
19111;SDS011;9688;51.906;8.376;2022-12-29T01:26:22;1.00;;;1.00;;
19111;SDS011;9688;51.906;8.376;2022-12-29T01:29:07;0.93;;;0.93;;
19111;SDS011;9688;51.906;8.376;2022-12-29T01:31:54;3.43;;;1.17;;
19111;SDS011;9688;51.906;8.376;2022-12-29T01:34:39;1.03;;;1.03;;
19111;SDS011;9688;51.906;8.376;2022-12-29T01:37:25;0.90;;;0.90;;
19111;SDS011;9688;51.906;8.376;2022-12-29T01:40:11;1.13;;;1.00;;
19111;SDS011;9688;51.906;8.376;2022-12-29T01:42:58;1.30;;;1.30;;
19111;SDS011;9688;51.906;8.376;2022-12-29T01:45:44;1.07;;;1.07;;
19111;SDS011;9688;51.906;8.376;2022-12-29T01:48:34;0.90;;;0.90;;
19111;SDS011;9688;51.906;8.376;2022-12-29T01:51:19;0.97;;;0.97;;
19111;SDS011;9688;51.906;8.376;2022-12-29T01:54:07;0.90;;;0.90;;
19111;SDS011;9688;51.906;8.376;2022-12-29T01:56:57;2.13;;;0.90;;
19111;SDS011;9688;51.906;8.376;2022-12-29T01:59:47;0.93;;;0.93;;
19111;SDS011;9688;51.906;8.376;2022-12-29T02:02:40;0.70;;;0.70;;
19111;SDS011;9688;51.906;8.376;2022-12-29T02:05:32;1.00;;;1.00;;
19111;SDS011;9688;51.906;8.376;2022-12-29T02:08:22;0.73;;;0.73;;
19111;SDS011;9688;51.906;8.376;2022-12-29T02:11:11;0.80;;;0.80;;
19111;SDS011;9688;51.906;8.376;2022-12-29T02:13:58;0.80;;;0.80;;
19111;SDS011;9688;51.906;8.376;2022-12-29T02:16:49;0.90;;;0.90;;
19111;SDS011;9688;51.906;8.376;2022-12-29T02:19:58;0.90;;;0.90;;
19111;SDS011;9688;51.906;8.376;2022-12-29T02:23:10;0.90;;;0.90;;
19111;SDS011;9688;51.906;8.376;2022-12-29T02:26:19;1.33;;;1.00;;
19111;SDS011;9688;51.906;8.376;2022-12-29T02:32:45;0.80;;;0.80;;
19111;SDS011;9688;51.906;8.376;2022-12-29T02:35:37;0.83;;;0.83;;
19111;SDS011;9688;51.906;8.376;2022-12-29T02:38:34;1.50;;;0.80;;
19111;SDS011;9688;51.906;8.376;2022-12-29T02:41:33;1.27;;;0.90;;
19111;SDS011;9688;51.906;8.376;2022-12-29T02:44:27;0.87;;;0.77;;
19111;SDS011;9688;51.906;8.376;2022-12-29T02:47:21;0.80;;;0.80;;
19111;SDS011;9688;51.906;8.376;2022-12-29T02:50:15;0.80;;;0.80;;
19111;SDS011;9688;51.906;8.376;2022-12-29T02:53:08;0.50;;;0.50;;
19111;SDS011;9688;51.906;8.376;2022-12-29T02:55:56;0.60;;;0.60;;
19111;SDS011;9688;51.906;8.376;2022-12-29T02:58:40;0.60;;;0.60;;
19111;SDS011;9688;51.906;8.376;2022-12-29T03:01:29;0.40;;;0.40;;
19111;SDS011;9688;51.906;8.376;2022-12-29T03:04:26;0.57;;;0.57;;
19111;SDS011;9688;51.906;8.376;2022-12-29T03:07:23;0.40;;;0.40;;
19111;SDS011;9688;51.906;8.376;2022-12-29T03:10:25;0.50;;;0.50;;
19111;SDS011;9688;51.906;8.376;2022-12-29T03:13:22;0.50;;;0.50;;
19111;SDS011;9688;51.906;8.376;2022-12-29T03:16:32;0.50;;;0.50;;
19111;SDS011;9688;51.906;8.376;2022-12-29T03:19:25;0.53;;;0.53;;
19111;SDS011;9688;51.906;8.376;2022-12-29T03:22:15;0.60;;;0.60;;
19111;SDS011;9688;51.906;8.376;2022-12-29T03:25:14;0.73;;;0.73;;
19111;SDS011;9688;51.906;8.376;2022-12-29T03:28:05;0.60;;;0.60;;
19111;SDS011;9688;51.906;8.376;2022-12-29T03:30:54;0.50;;;0.50;;
19111;SDS011;9688;51.906;8.376;2022-12-29T03:33:42;0.60;;;0.60;;
19111;SDS011;9688;51.906;8.376;2022-12-29T03:36:30;0.50;;;0.50;;
19111;SDS011;9688;51.906;8.376;2022-12-29T03:39:24;0.50;;;0.50;;
19111;SDS011;9688;51.906;8.376;2022-12-29T03:42:12;0.50;;;0.50;;
19111;SDS011;9688;51.906;8.376;2022-12-29T03:45:01;0.50;;;0.50;;
19111;SDS011;9688;51.906;8.376;2022-12-29T03:47:47;0.60;;;0.60;;
19111;SDS011;9688;51.906;8.376;2022-12-29T03:50:33;0.50;;;0.50;;
19111;SDS011;9688;51.906;8.376;2022-12-29T03:53:18;0.50;;;0.50;;
19111;SDS011;9688;51.906;8.376;2022-12-29T03:56:04;0.40;;;0.40;;
19111;SDS011;9688;51.906;8.376;2022-12-29T03:58:51;0.60;;;0.60;;
19111;SDS011;9688;51.906;8.376;2022-12-29T04:01:37;0.60;;;0.60;;
19111;SDS011;9688;51.906;8.376;2022-12-29T04:04:23;0.90;;;0.70;;
19111;SDS011;9688;51.906;8.376;2022-12-29T04:07:08;0.70;;;0.70;;
19111;SDS011;9688;51.906;8.376;2022-12-29T04:09:54;0.77;;;0.77;;
19111;SDS011;9688;51.906;8.376;2022-12-29T04:12:40;1.67;;;0.80;;
19111;SDS011;9688;51.906;8.376;2022-12-29T04:15:31;0.60;;;0.60;;
19111;SDS011;9688;51.906;8.376;2022-12-29T04:18:16;0.83;;;0.83;;
19111;SDS011;9688;51.906;8.376;2022-12-29T04:21:02;0.50;;;0.50;;
19111;SDS011;9688;51.906;8.376;2022-12-29T04:23:47;0.70;;;0.70;;
19111;SDS011;9688;51.906;8.376;2022-12-29T04:26:33;1.07;;;0.70;;
19111;SDS011;9688;51.906;8.376;2022-12-29T04:29:18;0.80;;;0.80;;
19111;SDS011;9688;51.906;8.376;2022-12-29T04:32:05;0.70;;;0.70;;
19111;SDS011;9688;51.906;8.376;2022-12-29T04:34:51;0.53;;;0.53;;
19111;SDS011;9688;51.906;8.376;2022-12-29T04:37:36;1.20;;;0.70;;
19111;SDS011;9688;51.906;8.376;2022-12-29T04:40:21;1.47;;;0.90;;
19111;SDS011;9688;51.906;8.376;2022-12-29T04:43:08;0.90;;;0.73;;
19111;SDS011;9688;51.906;8.376;2022-12-29T04:45:54;0.50;;;0.50;;
19111;SDS011;9688;51.906;8.376;2022-12-29T04:48:42;1.07;;;0.60;;
19111;SDS011;9688;51.906;8.376;2022-12-29T04:51:27;0.70;;;0.70;;
19111;SDS011;9688;51.906;8.376;2022-12-29T04:54:13;0.80;;;0.80;;
19111;SDS011;9688;51.906;8.376;2022-12-29T04:56:58;1.03;;;0.80;;
19111;SDS011;9688;51.906;8.376;2022-12-29T04:59:44;0.60;;;0.60;;
19111;SDS011;9688;51.906;8.376;2022-12-29T05:02:29;1.43;;;0.80;;
19111;SDS011;9688;51.906;8.376;2022-12-29T05:05:17;1.30;;;0.90;;
19111;SDS011;9688;51.906;8.376;2022-12-29T05:08:03;0.63;;;0.63;;
19111;SDS011;9688;51.906;8.376;2022-12-29T05:10:49;0.83;;;0.83;;
19111;SDS011;9688;51.906;8.376;2022-12-29T05:13:36;0.87;;;0.87;;
19111;SDS011;9688;51.906;8.376;2022-12-29T05:16:21;0.80;;;0.80;;
19111;SDS011;9688;51.906;8.376;2022-12-29T05:23:27;0.70;;;0.70;;
19111;SDS011;9688;51.906;8.376;2022-12-29T05:26:12;1.53;;;0.70;;
19111;SDS011;9688;51.906;8.376;2022-12-29T05:28:58;0.50;;;0.50;;
19111;SDS011;9688;51.906;8.376;2022-12-29T05:31:43;0.87;;;0.70;;
19111;SDS011;9688;51.906;8.376;2022-12-29T05:34:29;1.33;;;0.80;;
19111;SDS011;9688;51.906;8.376;2022-12-29T05:37:14;1.50;;;0.70;;
19111;SDS011;9688;51.906;8.376;2022-12-29T05:40:09;0.50;;;0.50;;
19111;SDS011;9688;51.906;8.376;2022-12-29T05:42:58;0.60;;;0.60;;
19111;SDS011;9688;51.906;8.376;2022-12-29T05:45:43;1.03;;;1.03;;
19111;SDS011;9688;51.906;8.376;2022-12-29T05:48:28;0.80;;;0.73;;
19111;SDS011;9688;51.906;8.376;2022-12-29T05:55:21;1.50;;;0.70;;
19111;SDS011;9688;51.906;8.376;2022-12-29T05:58:07;0.57;;;0.57;;
19111;SDS011;9688;51.906;8.376;2022-12-29T06:00:52;1.90;;;0.70;;
19111;SDS011;9688;51.906;8.376;2022-12-29T06:03:38;1.70;;;0.73;;
19111;SDS011;9688;51.906;8.376;2022-12-29T06:06:24;1.57;;;0.83;;
19111;SDS011;9688;51.906;8.376;2022-12-29T06:09:09;0.87;;;0.73;;
19111;SDS011;9688;51.906;8.376;2022-12-29T06:11:57;0.70;;;0.70;;
19111;SDS011;9688;51.906;8.376;2022-12-29T06:14:42;0.70;;;0.70;;
19111;SDS011;9688;51.906;8.376;2022-12-29T06:17:28;0.67;;;0.57;;
19111;SDS011;9688;51.906;8.376;2022-12-29T06:20:13;0.87;;;0.70;;
19111;SDS011;9688;51.906;8.376;2022-12-29T06:22:59;8.50;;;3.10;;
19111;SDS011;9688;51.906;8.376;2022-12-29T06:25:44;0.90;;;0.90;;
19111;SDS011;9688;51.906;8.376;2022-12-29T06:28:33;0.60;;;0.60;;
19111;SDS011;9688;51.906;8.376;2022-12-29T06:31:19;1.33;;;0.70;;
19111;SDS011;9688;51.906;8.376;2022-12-29T06:34:05;0.63;;;0.63;;
19111;SDS011;9688;51.906;8.376;2022-12-29T06:36:50;0.83;;;0.70;;
19111;SDS011;9688;51.906;8.376;2022-12-29T06:39:36;5.70;;;1.07;;
19111;SDS011;9688;51.906;8.376;2022-12-29T06:42:22;2.00;;;0.70;;
19111;SDS011;9688;51.906;8.376;2022-12-29T06:45:09;1.93;;;0.97;;
19111;SDS011;9688;51.906;8.376;2022-12-29T06:47:55;1.20;;;1.10;;
19111;SDS011;9688;51.906;8.376;2022-12-29T06:50:40;1.00;;;0.97;;
19111;SDS011;9688;51.906;8.376;2022-12-29T06:53:27;1.20;;;1.07;;
19111;SDS011;9688;51.906;8.376;2022-12-29T06:56:14;1.87;;;1.27;;
19111;SDS011;9688;51.906;8.376;2022-12-29T06:59:01;0.93;;;0.93;;
19111;SDS011;9688;51.906;8.376;2022-12-29T07:01:48;1.20;;;0.90;;
19111;SDS011;9688;51.906;8.376;2022-12-29T07:04:34;0.97;;;0.97;;
19111;SDS011;9688;51.906;8.376;2022-12-29T07:07:19;0.80;;;0.80;;
19111;SDS011;9688;51.906;8.376;2022-12-29T07:10:05;2.87;;;0.80;;
19111;SDS011;9688;51.906;8.376;2022-12-29T07:12:52;1.60;;;1.00;;
19111;SDS011;9688;51.906;8.376;2022-12-29T07:15:37;2.53;;;1.40;;
19111;SDS011;9688;51.906;8.376;2022-12-29T07:18:29;1.87;;;0.80;;
19111;SDS011;9688;51.906;8.376;2022-12-29T07:21:16;3.40;;;1.20;;
19111;SDS011;9688;51.906;8.376;2022-12-29T07:24:02;2.43;;;1.53;;
19111;SDS011;9688;51.906;8.376;2022-12-29T07:26:48;3.93;;;1.50;;
19111;SDS011;9688;51.906;8.376;2022-12-29T07:29:33;3.17;;;1.40;;
19111;SDS011;9688;51.906;8.376;2022-12-29T07:32:21;1.63;;;1.40;;
19111;SDS011;9688;51.906;8.376;2022-12-29T07:35:10;3.00;;;1.33;;
19111;SDS011;9688;51.906;8.376;2022-12-29T07:37:56;2.77;;;1.50;;
19111;SDS011;9688;51.906;8.376;2022-12-29T07:40:42;1.90;;;1.10;;
19111;SDS011;9688;51.906;8.376;2022-12-29T07:43:28;3.80;;;1.30;;
19111;SDS011;9688;51.906;8.376;2022-12-29T07:46:14;1.80;;;1.10;;
19111;SDS011;9688;51.906;8.376;2022-12-29T07:49:00;2.43;;;1.20;;
19111;SDS011;9688;51.906;8.376;2022-12-29T07:51:47;5.80;;;1.40;;
19111;SDS011;9688;51.906;8.376;2022-12-29T07:54:36;5.43;;;1.43;;
19111;SDS011;9688;51.906;8.376;2022-12-29T07:57:25;2.70;;;1.33;;
19111;SDS011;9688;51.906;8.376;2022-12-29T08:00:11;1.93;;;1.60;;
19111;SDS011;9688;51.906;8.376;2022-12-29T08:03:00;1.97;;;1.30;;
19111;SDS011;9688;51.906;8.376;2022-12-29T08:05:45;2.03;;;1.20;;
19111;SDS011;9688;51.906;8.376;2022-12-29T08:08:32;1.53;;;1.30;;
19111;SDS011;9688;51.906;8.376;2022-12-29T08:11:17;5.67;;;1.60;;
19111;SDS011;9688;51.906;8.376;2022-12-29T08:14:03;2.70;;;1.90;;
19111;SDS011;9688;51.906;8.376;2022-12-29T08:16:49;2.20;;;1.40;;
19111;SDS011;9688;51.906;8.376;2022-12-29T08:19:34;3.17;;;1.50;;
19111;SDS011;9688;51.906;8.376;2022-12-29T08:22:20;1.40;;;1.30;;
19111;SDS011;9688;51.906;8.376;2022-12-29T08:25:07;1.60;;;1.50;;
19111;SDS011;9688;51.906;8.376;2022-12-29T08:27:53;2.30;;;1.40;;
19111;SDS011;9688;51.906;8.376;2022-12-29T08:30:40;3.37;;;1.50;;
19111;SDS011;9688;51.906;8.376;2022-12-29T08:33:25;2.80;;;1.70;;
19111;SDS011;9688;51.906;8.376;2022-12-29T08:36:11;3.07;;;1.33;;
19111;SDS011;9688;51.906;8.376;2022-12-29T08:38:58;1.30;;;1.20;;
19111;SDS011;9688;51.906;8.376;2022-12-29T08:41:45;2.17;;;1.10;;
19111;SDS011;9688;51.906;8.376;2022-12-29T08:44:30;2.17;;;1.30;;
19111;SDS011;9688;51.906;8.376;2022-12-29T08:47:15;1.90;;;1.50;;
19111;SDS011;9688;51.906;8.376;2022-12-29T08:50:07;1.50;;;1.40;;
19111;SDS011;9688;51.906;8.376;2022-12-29T08:52:53;3.63;;;1.70;;
19111;SDS011;9688;51.906;8.376;2022-12-29T08:55:38;1.40;;;1.30;;
19111;SDS011;9688;51.906;8.376;2022-12-29T08:58:25;8.53;;;1.57;;
19111;SDS011;9688;51.906;8.376;2022-12-29T09:01:12;2.87;;;1.57;;
19111;SDS011;9688;51.906;8.376;2022-12-29T09:03:57;6.40;;;1.57;;
19111;SDS011;9688;51.906;8.376;2022-12-29T09:06:43;4.00;;;1.90;;
19111;SDS011;9688;51.906;8.376;2022-12-29T09:09:30;5.30;;;1.87;;
19111;SDS011;9688;51.906;8.376;2022-12-29T09:12:16;1.97;;;1.87;;
19111;SDS011;9688;51.906;8.376;2022-12-29T09:15:04;3.87;;;2.37;;
19111;SDS011;9688;51.906;8.376;2022-12-29T09:17:51;5.90;;;2.07;;
19111;SDS011;9688;51.906;8.376;2022-12-29T09:20:38;3.07;;;1.90;;
19111;SDS011;9688;51.906;8.376;2022-12-29T09:23:24;2.33;;;1.90;;
19111;SDS011;9688;51.906;8.376;2022-12-29T09:26:11;3.70;;;1.70;;
19111;SDS011;9688;51.906;8.376;2022-12-29T09:28:56;4.27;;;1.70;;
19111;SDS011;9688;51.906;8.376;2022-12-29T09:31:43;4.60;;;1.30;;
19111;SDS011;9688;51.906;8.376;2022-12-29T09:34:29;2.17;;;1.40;;
19111;SDS011;9688;51.906;8.376;2022-12-29T09:37:15;2.90;;;1.50;;
19111;SDS011;9688;51.906;8.376;2022-12-29T09:40:04;8.10;;;1.83;;
19111;SDS011;9688;51.906;8.376;2022-12-29T09:43:02;2.73;;;1.50;;
19111;SDS011;9688;51.906;8.376;2022-12-29T09:45:58;5.63;;;1.53;;
19111;SDS011;9688;51.906;8.376;2022-12-29T09:49:03;4.27;;;1.80;;
19111;SDS011;9688;51.906;8.376;2022-12-29T09:51:57;5.17;;;1.90;;
19111;SDS011;9688;51.906;8.376;2022-12-29T09:54:50;6.23;;;1.80;;
19111;SDS011;9688;51.906;8.376;2022-12-29T09:57:39;2.53;;;1.40;;
19111;SDS011;9688;51.906;8.376;2022-12-29T10:00:33;4.13;;;1.47;;
19111;SDS011;9688;51.906;8.376;2022-12-29T10:03:22;4.10;;;1.80;;
19111;SDS011;9688;51.906;8.376;2022-12-29T10:06:15;5.83;;;1.40;;
19111;SDS011;9688;51.906;8.376;2022-12-29T10:09:08;8.53;;;1.70;;
19111;SDS011;9688;51.906;8.376;2022-12-29T10:12:03;3.37;;;1.40;;
19111;SDS011;9688;51.906;8.376;2022-12-29T10:15:04;2.90;;;1.67;;
19111;SDS011;9688;51.906;8.376;2022-12-29T10:18:01;4.70;;;1.67;;
19111;SDS011;9688;51.906;8.376;2022-12-29T10:20:58;11.77;;;2.10;;
19111;SDS011;9688;51.906;8.376;2022-12-29T10:23:53;4.80;;;1.80;;
19111;SDS011;9688;51.906;8.376;2022-12-29T10:26:41;7.73;;;2.23;;
19111;SDS011;9688;51.906;8.376;2022-12-29T10:29:29;4.37;;;1.50;;
19111;SDS011;9688;51.906;8.376;2022-12-29T10:32:22;4.27;;;1.60;;
19111;SDS011;9688;51.906;8.376;2022-12-29T10:35:14;4.07;;;1.53;;
19111;SDS011;9688;51.906;8.376;2022-12-29T10:38:03;5.87;;;1.80;;
19111;SDS011;9688;51.906;8.376;2022-12-29T10:40:58;3.33;;;1.30;;
19111;SDS011;9688;51.906;8.376;2022-12-29T10:43:49;2.23;;;1.90;;
19111;SDS011;9688;51.906;8.376;2022-12-29T10:46:38;3.27;;;1.73;;
19111;SDS011;9688;51.906;8.376;2022-12-29T10:49:24;8.20;;;1.70;;
19111;SDS011;9688;51.906;8.376;2022-12-29T10:52:12;4.07;;;1.60;;
19111;SDS011;9688;51.906;8.376;2022-12-29T10:55:00;7.23;;;2.07;;
19111;SDS011;9688;51.906;8.376;2022-12-29T10:57:51;3.83;;;1.80;;
19111;SDS011;9688;51.906;8.376;2022-12-29T11:00:36;2.47;;;1.50;;
19111;SDS011;9688;51.906;8.376;2022-12-29T11:03:40;6.83;;;3.07;;
19111;SDS011;9688;51.906;8.376;2022-12-29T11:06:36;8.80;;;4.70;;
19111;SDS011;9688;51.906;8.376;2022-12-29T11:09:24;2.97;;;1.87;;
19111;SDS011;9688;51.906;8.376;2022-12-29T11:12:21;6.43;;;3.40;;
19111;SDS011;9688;51.906;8.376;2022-12-29T11:15:15;6.13;;;2.10;;
19111;SDS011;9688;51.906;8.376;2022-12-29T11:18:03;7.83;;;1.97;;
19111;SDS011;9688;51.906;8.376;2022-12-29T11:20:49;5.00;;;1.83;;
19111;SDS011;9688;51.906;8.376;2022-12-29T11:23:37;6.33;;;1.70;;
19111;SDS011;9688;51.906;8.376;2022-12-29T11:26:27;2.40;;;1.70;;
19111;SDS011;9688;51.906;8.376;2022-12-29T11:29:25;4.97;;;2.07;;
19111;SDS011;9688;51.906;8.376;2022-12-29T11:32:17;3.67;;;1.90;;
19111;SDS011;9688;51.906;8.376;2022-12-29T11:35:05;4.43;;;1.80;;
19111;SDS011;9688;51.906;8.376;2022-12-29T11:37:53;6.43;;;2.07;;
19111;SDS011;9688;51.906;8.376;2022-12-29T11:40:44;4.07;;;1.93;;
19111;SDS011;9688;51.906;8.376;2022-12-29T11:43:31;5.37;;;1.93;;
19111;SDS011;9688;51.906;8.376;2022-12-29T11:46:20;3.80;;;1.80;;
19111;SDS011;9688;51.906;8.376;2022-12-29T11:49:12;15.97;;;6.17;;
19111;SDS011;9688;51.906;8.376;2022-12-29T11:52:06;6.90;;;2.77;;
19111;SDS011;9688;51.906;8.376;2022-12-29T11:54:53;6.97;;;5.10;;
19111;SDS011;9688;51.906;8.376;2022-12-29T11:57:43;13.27;;;8.20;;
19111;SDS011;9688;51.906;8.376;2022-12-29T12:00:31;5.57;;;1.73;;
19111;SDS011;9688;51.906;8.376;2022-12-29T12:03:24;7.27;;;3.37;;
19111;SDS011;9688;51.906;8.376;2022-12-29T12:06:15;5.80;;;2.00;;
19111;SDS011;9688;51.906;8.376;2022-12-29T12:09:10;4.93;;;2.40;;
19111;SDS011;9688;51.906;8.376;2022-12-29T12:12:08;5.20;;;2.27;;
19111;SDS011;9688;51.906;8.376;2022-12-29T12:15:08;7.83;;;3.00;;
19111;SDS011;9688;51.906;8.376;2022-12-29T12:18:02;7.43;;;2.27;;
19111;SDS011;9688;51.906;8.376;2022-12-29T12:20:56;6.17;;;2.03;;
19111;SDS011;9688;51.906;8.376;2022-12-29T12:24:01;3.63;;;1.40;;
19111;SDS011;9688;51.906;8.376;2022-12-29T12:27:07;5.40;;;2.17;;
19111;SDS011;9688;51.906;8.376;2022-12-29T12:29:58;3.83;;;2.13;;
19111;SDS011;9688;51.906;8.376;2022-12-29T12:32:50;5.23;;;1.80;;
19111;SDS011;9688;51.906;8.376;2022-12-29T12:35:43;2.43;;;1.73;;
19111;SDS011;9688;51.906;8.376;2022-12-29T12:38:37;5.87;;;2.30;;
19111;SDS011;9688;51.906;8.376;2022-12-29T12:41:40;6.30;;;2.27;;
19111;SDS011;9688;51.906;8.376;2022-12-29T12:44:35;3.77;;;2.00;;
19111;SDS011;9688;51.906;8.376;2022-12-29T12:47:35;7.53;;;2.37;;
19111;SDS011;9688;51.906;8.376;2022-12-29T12:50:35;4.33;;;2.30;;
19111;SDS011;9688;51.906;8.376;2022-12-29T12:53:36;5.47;;;1.93;;
19111;SDS011;9688;51.906;8.376;2022-12-29T12:56:53;6.97;;;2.43;;
19111;SDS011;9688;51.906;8.376;2022-12-29T12:59:50;5.83;;;2.03;;
19111;SDS011;9688;51.906;8.376;2022-12-29T13:02:44;8.17;;;2.00;;
19111;SDS011;9688;51.906;8.376;2022-12-29T13:05:50;5.33;;;2.73;;
19111;SDS011;9688;51.906;8.376;2022-12-29T13:08:56;9.03;;;3.43;;
19111;SDS011;9688;51.906;8.376;2022-12-29T13:11:56;7.93;;;2.47;;
19111;SDS011;9688;51.906;8.376;2022-12-29T13:14:54;6.17;;;2.47;;
19111;SDS011;9688;51.906;8.376;2022-12-29T13:17:52;6.43;;;2.53;;
19111;SDS011;9688;51.906;8.376;2022-12-29T13:20:45;7.20;;;2.67;;
19111;SDS011;9688;51.906;8.376;2022-12-29T13:23:38;4.33;;;2.50;;
19111;SDS011;9688;51.906;8.376;2022-12-29T13:26:31;3.77;;;2.07;;
19111;SDS011;9688;51.906;8.376;2022-12-29T13:29:32;9.37;;;2.77;;
19111;SDS011;9688;51.906;8.376;2022-12-29T13:32:32;6.43;;;2.83;;
19111;SDS011;9688;51.906;8.376;2022-12-29T13:35:40;5.47;;;2.60;;
19111;SDS011;9688;51.906;8.376;2022-12-29T13:38:37;6.87;;;2.23;;
19111;SDS011;9688;51.906;8.376;2022-12-29T13:41:27;4.57;;;2.23;;
19111;SDS011;9688;51.906;8.376;2022-12-29T13:44:17;4.93;;;2.20;;
19111;SDS011;9688;51.906;8.376;2022-12-29T13:47:12;6.07;;;2.30;;
19111;SDS011;9688;51.906;8.376;2022-12-29T13:50:05;4.77;;;2.40;;
19111;SDS011;9688;51.906;8.376;2022-12-29T13:52:59;6.30;;;2.33;;
19111;SDS011;9688;51.906;8.376;2022-12-29T13:55:54;5.67;;;2.20;;
19111;SDS011;9688;51.906;8.376;2022-12-29T13:58:44;6.63;;;2.53;;
19111;SDS011;9688;51.906;8.376;2022-12-29T14:01:35;7.37;;;2.57;;
19111;SDS011;9688;51.906;8.376;2022-12-29T14:04:28;9.10;;;2.80;;
19111;SDS011;9688;51.906;8.376;2022-12-29T14:07:17;5.50;;;2.63;;
19111;SDS011;9688;51.906;8.376;2022-12-29T14:10:18;9.30;;;2.30;;
19111;SDS011;9688;51.906;8.376;2022-12-29T14:13:14;14.23;;;4.03;;
19111;SDS011;9688;51.906;8.376;2022-12-29T14:16:02;5.50;;;2.57;;
19111;SDS011;9688;51.906;8.376;2022-12-29T14:18:48;7.13;;;2.63;;
19111;SDS011;9688;51.906;8.376;2022-12-29T14:21:35;7.40;;;2.53;;
19111;SDS011;9688;51.906;8.376;2022-12-29T14:24:37;8.87;;;3.10;;
19111;SDS011;9688;51.906;8.376;2022-12-29T14:27:44;7.27;;;2.33;;
19111;SDS011;9688;51.906;8.376;2022-12-29T14:34:14;5.93;;;1.80;;
19111;SDS011;9688;51.906;8.376;2022-12-29T14:37:25;12.33;;;3.30;;
19111;SDS011;9688;51.906;8.376;2022-12-29T14:40:14;6.23;;;2.27;;
19111;SDS011;9688;51.906;8.376;2022-12-29T14:43:02;9.20;;;2.33;;
19111;SDS011;9688;51.906;8.376;2022-12-29T14:45:59;7.00;;;3.17;;
19111;SDS011;9688;51.906;8.376;2022-12-29T14:48:47;7.00;;;2.20;;
19111;SDS011;9688;51.906;8.376;2022-12-29T14:51:34;10.13;;;3.27;;
19111;SDS011;9688;51.906;8.376;2022-12-29T14:57:35;5.90;;;2.33;;
19111;SDS011;9688;51.906;8.376;2022-12-29T15:00:27;7.37;;;2.40;;
19111;SDS011;9688;51.906;8.376;2022-12-29T15:03:22;7.20;;;2.77;;
19111;SDS011;9688;51.906;8.376;2022-12-29T15:06:09;7.27;;;2.60;;
19111;SDS011;9688;51.906;8.376;2022-12-29T15:09:01;7.73;;;2.60;;
19111;SDS011;9688;51.906;8.376;2022-12-29T15:11:53;7.83;;;2.77;;
19111;SDS011;9688;51.906;8.376;2022-12-29T15:14:48;5.40;;;2.30;;
19111;SDS011;9688;51.906;8.376;2022-12-29T15:17:36;5.20;;;2.00;;
19111;SDS011;9688;51.906;8.376;2022-12-29T15:20:25;6.37;;;2.03;;
19111;SDS011;9688;51.906;8.376;2022-12-29T15:23:14;8.47;;;2.60;;
19111;SDS011;9688;51.906;8.376;2022-12-29T15:26:03;8.37;;;2.00;;
19111;SDS011;9688;51.906;8.376;2022-12-29T15:28:51;7.93;;;2.70;;
19111;SDS011;9688;51.906;8.376;2022-12-29T15:31:45;5.80;;;2.50;;
19111;SDS011;9688;51.906;8.376;2022-12-29T15:34:31;5.40;;;2.60;;
19111;SDS011;9688;51.906;8.376;2022-12-29T15:37:18;5.53;;;2.50;;
19111;SDS011;9688;51.906;8.376;2022-12-29T15:40:19;10.47;;;2.67;;
19111;SDS011;9688;51.906;8.376;2022-12-29T15:43:15;5.03;;;2.47;;
19111;SDS011;9688;51.906;8.376;2022-12-29T15:46:19;7.33;;;2.80;;
19111;SDS011;9688;51.906;8.376;2022-12-29T15:49:06;5.80;;;2.83;;
19111;SDS011;9688;51.906;8.376;2022-12-29T15:51:53;6.67;;;2.83;;
19111;SDS011;9688;51.906;8.376;2022-12-29T15:54:40;8.47;;;2.73;;
19111;SDS011;9688;51.906;8.376;2022-12-29T15:57:30;7.70;;;2.33;;
19111;SDS011;9688;51.906;8.376;2022-12-29T16:00:22;6.50;;;2.40;;
19111;SDS011;9688;51.906;8.376;2022-12-29T16:03:12;8.30;;;2.50;;
19111;SDS011;9688;51.906;8.376;2022-12-29T16:06:06;7.93;;;1.80;;
19111;SDS011;9688;51.906;8.376;2022-12-29T16:08:58;4.67;;;2.20;;
19111;SDS011;9688;51.906;8.376;2022-12-29T16:11:46;8.40;;;1.80;;
19111;SDS011;9688;51.906;8.376;2022-12-29T16:14:37;6.23;;;3.23;;
19111;SDS011;9688;51.906;8.376;2022-12-29T16:17:29;6.57;;;2.30;;
19111;SDS011;9688;51.906;8.376;2022-12-29T16:20:18;7.90;;;3.23;;
19111;SDS011;9688;51.906;8.376;2022-12-29T16:23:09;8.37;;;2.13;;
19111;SDS011;9688;51.906;8.376;2022-12-29T16:26:04;5.50;;;1.70;;
19111;SDS011;9688;51.906;8.376;2022-12-29T16:29:01;9.83;;;2.67;;
19111;SDS011;9688;51.906;8.376;2022-12-29T16:31:51;7.17;;;2.50;;
19111;SDS011;9688;51.906;8.376;2022-12-29T16:34:43;6.67;;;1.83;;
19111;SDS011;9688;51.906;8.376;2022-12-29T16:37:31;6.97;;;2.20;;
19111;SDS011;9688;51.906;8.376;2022-12-29T16:40:25;5.03;;;2.27;;
19111;SDS011;9688;51.906;8.376;2022-12-29T16:43:18;10.37;;;2.50;;
19111;SDS011;9688;51.906;8.376;2022-12-29T16:46:16;12.00;;;2.10;;
19111;SDS011;9688;51.906;8.376;2022-12-29T16:49:14;4.70;;;2.53;;
19111;SDS011;9688;51.906;8.376;2022-12-29T16:52:11;8.67;;;3.00;;
19111;SDS011;9688;51.906;8.376;2022-12-29T16:55:01;6.97;;;2.33;;
19111;SDS011;9688;51.906;8.376;2022-12-29T16:57:47;4.37;;;1.90;;
19111;SDS011;9688;51.906;8.376;2022-12-29T17:00:36;6.03;;;2.87;;
19111;SDS011;9688;51.906;8.376;2022-12-29T17:03:28;5.83;;;1.73;;
19111;SDS011;9688;51.906;8.376;2022-12-29T17:06:20;5.93;;;2.00;;
19111;SDS011;9688;51.906;8.376;2022-12-29T17:09:16;6.73;;;2.60;;
19111;SDS011;9688;51.906;8.376;2022-12-29T17:12:05;5.47;;;2.00;;
19111;SDS011;9688;51.906;8.376;2022-12-29T17:14:52;2.83;;;2.00;;
19111;SDS011;9688;51.906;8.376;2022-12-29T17:17:41;9.07;;;3.10;;
19111;SDS011;9688;51.906;8.376;2022-12-29T17:20:28;11.67;;;2.20;;
19111;SDS011;9688;51.906;8.376;2022-12-29T17:23:15;6.87;;;2.40;;
19111;SDS011;9688;51.906;8.376;2022-12-29T17:26:01;10.60;;;3.37;;
19111;SDS011;9688;51.906;8.376;2022-12-29T17:28:48;4.07;;;2.10;;
19111;SDS011;9688;51.906;8.376;2022-12-29T17:31:34;6.63;;;2.70;;
19111;SDS011;9688;51.906;8.376;2022-12-29T17:34:20;8.33;;;3.37;;
19111;SDS011;9688;51.906;8.376;2022-12-29T17:37:27;8.00;;;2.50;;
19111;SDS011;9688;51.906;8.376;2022-12-29T17:40:16;4.53;;;2.13;;